Terminal Aerodrome Forecast
Issued by NWS Twin Cities, MN

Home | Current Version | Previous Version | Text Only | Print | Product List | Glossary Off
Versions: 1 2 3 4 5 6 7 8 9 10 11 12 13 14 15

000
FTUS43 KMPX 270526
TAFSTC
TAF
KSTC 270526Z 2706/2806 35006KT P6SM SKC
     FM270900 VRB03KT P6SM SKC
     FM271900 18005KT P6SM BKN150
     FM280000 15004KT P6SM OVC090=

USA.gov is the U.S. government's official web portal to all federal, state and local government web resources and services.